sensor_id;sensor_type;location;lat;lon;timestamp;pressure;altitude;pressure_sealevel;temperature;humidity
15267;BME280;7735;49.144;8.668;2023-10-13T00:00:47;100202.13;;;19.69;65.68
15267;BME280;7735;49.144;8.668;2023-10-13T00:03:13;100199.47;;;19.69;65.68
15267;BME280;7735;49.144;8.668;2023-10-13T00:05:41;100196.84;;;19.69;65.75
15267;BME280;7735;49.144;8.668;2023-10-13T00:08:10;100200.28;;;19.71;65.73
15267;BME280;7735;49.144;8.668;2023-10-13T00:10:36;100188.91;;;19.69;65.64
15267;BME280;7735;49.144;8.668;2023-10-13T00:13:03;100187.97;;;19.70;65.80
15267;BME280;7735;49.144;8.668;2023-10-13T00:15:39;100199.44;;;19.70;65.57
15267;BME280;7735;49.144;8.668;2023-10-13T00:18:10;100195.06;;;19.69;65.63
15267;BME280;7735;49.144;8.668;2023-10-13T00:20:40;100193.41;;;19.67;65.76
15267;BME280;7735;49.144;8.668;2023-10-13T00:23:14;100190.00;;;19.65;65.67
15267;BME280;7735;49.144;8.668;2023-10-13T00:25:46;100188.28;;;19.64;65.75
15267;BME280;7735;49.144;8.668;2023-10-13T00:28:15;100189.13;;;19.64;65.82
15267;BME280;7735;49.144;8.668;2023-10-13T00:30:49;100186.56;;;19.63;66.02
15267;BME280;7735;49.144;8.668;2023-10-13T00:33:17;100181.28;;;19.63;65.88
15267;BME280;7735;49.144;8.668;2023-10-13T00:35:45;100176.94;;;19.62;65.88
15267;BME280;7735;49.144;8.668;2023-10-13T00:38:14;100176.00;;;19.63;65.85
15267;BME280;7735;49.144;8.668;2023-10-13T00:40:43;100176.00;;;19.63;65.76
15267;BME280;7735;49.144;8.668;2023-10-13T00:43:17;100176.94;;;19.62;65.73
15267;BME280;7735;49.144;8.668;2023-10-13T00:46:04;100173.41;;;19.61;65.65
15267;BME280;7735;49.144;8.668;2023-10-13T00:48:38;100178.69;;;19.61;65.43
15267;BME280;7735;49.144;8.668;2023-10-13T00:51:09;100172.53;;;19.61;65.47
15267;BME280;7735;49.144;8.668;2023-10-13T00:53:45;100175.16;;;19.62;65.45
15267;BME280;7735;49.144;8.668;2023-10-13T00:56:13;100175.16;;;19.62;65.31
15267;BME280;7735;49.144;8.668;2023-10-13T00:58:48;100179.56;;;19.62;65.29
15267;BME280;7735;49.144;8.668;2023-10-13T01:01:15;100168.94;;;19.63;65.07
15267;BME280;7735;49.144;8.668;2023-10-13T01:03:50;100165.44;;;19.63;64.91
15267;BME280;7735;49.144;8.668;2023-10-13T01:06:21;100170.72;;;19.63;64.82
15267;BME280;7735;49.144;8.668;2023-10-13T01:08:58;100169.91;;;19.61;64.78
15267;BME280;7735;49.144;8.668;2023-10-13T01:11:25;100164.78;;;19.58;64.95
15267;BME280;7735;49.144;8.668;2023-10-13T01:13:55;100171.03;;;19.55;65.01
15267;BME280;7735;49.144;8.668;2023-10-13T01:16:20;100168.50;;;19.52;65.21
15267;BME280;7735;49.144;8.668;2023-10-13T01:18:48;100157.06;;;19.51;65.27
15267;BME280;7735;49.144;8.668;2023-10-13T01:21:15;100153.66;;;19.49;65.27
15267;BME280;7735;49.144;8.668;2023-10-13T01:23:47;100157.22;;;19.48;65.38
15267;BME280;7735;49.144;8.668;2023-10-13T01:26:13;100159.00;;;19.48;65.25
15267;BME280;7735;49.144;8.668;2023-10-13T01:28:49;100152.09;;;19.45;65.27
15267;BME280;7735;49.144;8.668;2023-10-13T01:31:15;100151.28;;;19.43;65.26
15267;BME280;7735;49.144;8.668;2023-10-13T01:33:51;100146.06;;;19.42;65.26
15267;BME280;7735;49.144;8.668;2023-10-13T01:36:22;100142.63;;;19.40;65.22
15267;BME280;7735;49.144;8.668;2023-10-13T01:38:59;100140.06;;;19.38;65.20
15267;BME280;7735;49.144;8.668;2023-10-13T01:41:29;100135.72;;;19.37;65.24
15267;BME280;7735;49.144;8.668;2023-10-13T01:44:02;100141.13;;;19.34;65.10
15267;BME280;7735;49.144;8.668;2023-10-13T01:46:29;100132.50;;;19.31;64.93
15267;BME280;7735;49.144;8.668;2023-10-13T01:48:55;100132.63;;;19.28;65.20
15267;BME280;7735;49.144;8.668;2023-10-13T01:51:23;100134.47;;;19.25;65.11
15267;BME280;7735;49.144;8.668;2023-10-13T01:53:52;100125.03;;;19.20;65.04
15267;BME280;7735;49.144;8.668;2023-10-13T01:56:23;100125.16;;;19.17;64.97
15267;BME280;7735;49.144;8.668;2023-10-13T01:58:50;100121.63;;;19.18;64.41
15267;BME280;7735;49.144;8.668;2023-10-13T02:01:15;100111.91;;;19.18;64.48
15267;BME280;7735;49.144;8.668;2023-10-13T02:03:52;100104.94;;;19.17;64.17
15267;BME280;7735;49.144;8.668;2023-10-13T02:06:26;100105.78;;;19.18;63.82
15267;BME280;7735;49.144;8.668;2023-10-13T02:08:58;100108.28;;;19.21;63.23
15267;BME280;7735;49.144;8.668;2023-10-13T02:11:29;100099.44;;;19.22;62.52
15267;BME280;7735;49.144;8.668;2023-10-13T02:13:56;100094.16;;;19.22;61.94
15267;BME280;7735;49.144;8.668;2023-10-13T02:16:22;100094.94;;;19.24;61.45
15267;BME280;7735;49.144;8.668;2023-10-13T02:18:50;100086.94;;;19.25;60.94
15267;BME280;7735;49.144;8.668;2023-10-13T02:21:16;100097.31;;;19.30;60.54
15267;BME280;7735;49.144;8.668;2023-10-13T02:23:43;100090.06;;;19.35;59.78
15267;BME280;7735;49.144;8.668;2023-10-13T02:26:10;100085.56;;;19.37;59.25
15267;BME280;7735;49.144;8.668;2023-10-13T02:28:39;100084.63;;;19.38;59.08
15267;BME280;7735;49.144;8.668;2023-10-13T02:31:05;100084.63;;;19.38;59.18
15267;BME280;7735;49.144;8.668;2023-10-13T02:33:33;100085.63;;;19.36;59.37
15267;BME280;7735;49.144;8.668;2023-10-13T02:35:59;100083.97;;;19.33;59.69
15267;BME280;7735;49.144;8.668;2023-10-13T02:38:29;100081.63;;;19.27;59.82
15267;BME280;7735;49.144;8.668;2023-10-13T02:41:10;100073.81;;;19.24;59.94
15267;BME280;7735;49.144;8.668;2023-10-13T02:43:39;100069.53;;;19.21;60.25
15267;BME280;7735;49.144;8.668;2023-10-13T02:46:04;100065.25;;;19.19;60.34
15267;BME280;7735;49.144;8.668;2023-10-13T02:48:31;100066.19;;;19.18;60.31
15267;BME280;7735;49.144;8.668;2023-10-13T02:51:06;100055.75;;;19.15;60.68
15267;BME280;7735;49.144;8.668;2023-10-13T02:53:41;100074.53;;;19.09;60.66
15267;BME280;7735;49.144;8.668;2023-10-13T02:56:06;100070.28;;;19.05;60.75
15267;BME280;7735;49.144;8.668;2023-10-13T02:58:40;100062.50;;;19.02;61.22
15267;BME280;7735;49.144;8.668;2023-10-13T03:01:11;100073.19;;;18.99;61.29
15267;BME280;7735;49.144;8.668;2023-10-13T03:03:44;100073.31;;;18.95;61.18
15267;BME280;7735;49.144;8.668;2023-10-13T03:06:14;100064.63;;;18.93;61.19
15267;BME280;7735;49.144;8.668;2023-10-13T03:08:41;100071.75;;;18.91;61.39
15267;BME280;7735;49.144;8.668;2023-10-13T03:11:09;100065.66;;;18.89;61.14
15267;BME280;7735;49.144;8.668;2023-10-13T03:13:35;100065.72;;;18.88;60.92
15267;BME280;7735;49.144;8.668;2023-10-13T03:16:11;100070.16;;;18.87;60.89
15267;BME280;7735;49.144;8.668;2023-10-13T03:18:36;100065.88;;;18.85;60.86
15267;BME280;7735;49.144;8.668;2023-10-13T03:21:03;100066.72;;;18.85;60.78
15267;BME280;7735;49.144;8.668;2023-10-13T03:23:29;100067.00;;;18.79;60.61
15267;BME280;7735;49.144;8.668;2023-10-13T03:26:09;100060.16;;;18.75;60.46
15267;BME280;7735;49.144;8.668;2023-10-13T03:28:35;100059.28;;;18.75;60.45
15267;BME280;7735;49.144;8.668;2023-10-13T03:31:04;100059.28;;;18.75;60.60
15267;BME280;7735;49.144;8.668;2023-10-13T03:33:32;100061.06;;;18.74;60.74
15267;BME280;7735;49.144;8.668;2023-10-13T03:35:59;100062.84;;;18.74;60.52
15267;BME280;7735;49.144;8.668;2023-10-13T03:38:31;100065.53;;;18.72;60.80
15267;BME280;7735;49.144;8.668;2023-10-13T03:41:02;100063.81;;;18.71;60.82
15267;BME280;7735;49.144;8.668;2023-10-13T03:43:37;100069.22;;;18.68;60.95
15267;BME280;7735;49.144;8.668;2023-10-13T03:46:12;100058.81;;;18.65;60.70
15267;BME280;7735;49.144;8.668;2023-10-13T03:48:39;100065.97;;;18.61;60.91
15267;BME280;7735;49.144;8.668;2023-10-13T03:51:17;100076.56;;;18.60;60.82
15267;BME280;7735;49.144;8.668;2023-10-13T03:53:44;100066.03;;;18.60;60.92
15267;BME280;7735;49.144;8.668;2023-10-13T03:56:18;100066.03;;;18.60;60.90
15267;BME280;7735;49.144;8.668;2023-10-13T03:58:52;100066.03;;;18.60;60.91
15267;BME280;7735;49.144;8.668;2023-10-13T04:01:21;100059.91;;;18.59;60.95
15267;BME280;7735;49.144;8.668;2023-10-13T04:03:57;100057.44;;;18.55;60.93
15267;BME280;7735;49.144;8.668;2023-10-13T04:06:28;100050.59;;;18.51;61.05
15267;BME280;7735;49.144;8.668;2023-10-13T04:09:16;100052.31;;;18.52;61.18
15267;BME280;7735;49.144;8.668;2023-10-13T04:12:02;100040.03;;;18.51;61.00
15267;BME280;7735;49.144;8.668;2023-10-13T04:15:07;100031.47;;;18.46;61.09
15267;BME280;7735;49.144;8.668;2023-10-13T04:17:49;100040.38;;;18.43;61.03
15267;BME280;7735;49.144;8.668;2023-10-13T04:20:16;100026.31;;;18.43;61.09
15267;BME280;7735;49.144;8.668;2023-10-13T04:23:03;100026.47;;;18.39;61.15
15267;BME280;7735;49.144;8.668;2023-10-13T04:25:50;100024.88;;;18.35;61.21
15267;BME280;7735;49.144;8.668;2023-10-13T04:28:46;100032.91;;;18.32;61.37
15267;BME280;7735;49.144;8.668;2023-10-13T04:31:24;100028.56;;;18.31;61.16
15267;BME280;7735;49.144;8.668;2023-10-13T04:34:11;100032.91;;;18.32;61.18
15267;BME280;7735;49.144;8.668;2023-10-13T04:36:45;100023.28;;;18.31;60.82
15267;BME280;7735;49.144;8.668;2023-10-13T04:39:11;100025.06;;;18.31;60.94
15267;BME280;7735;49.144;8.668;2023-10-13T04:41:48;100019.88;;;18.29;60.94
15267;BME280;7735;49.144;8.668;2023-10-13T04:44:24;100015.56;;;18.27;60.82
15267;BME280;7735;49.144;8.668;2023-10-13T04:47:04;100017.94;;;18.33;60.74
15267;BME280;7735;49.144;8.668;2023-10-13T04:49:38;100009.00;;;18.57;60.11
15267;BME280;7735;49.144;8.668;2023-10-13T04:52:18;99999.03;;;18.64;59.66
15267;BME280;7735;49.144;8.668;2023-10-13T04:55:12;100000.19;;;18.58;59.64
15267;BME280;7735;49.144;8.668;2023-10-13T04:58:02;100006.69;;;18.50;59.70
15267;BME280;7735;49.144;8.668;2023-10-13T05:00:40;99999.97;;;18.43;60.10
15267;BME280;7735;49.144;8.668;2023-10-13T05:03:21;100001.03;;;18.38;59.68
15267;BME280;7735;49.144;8.668;2023-10-13T05:06:19;100007.47;;;18.31;59.89
15267;BME280;7735;49.144;8.668;2023-10-13T05:09:03;100009.72;;;18.20;60.02
15267;BME280;7735;49.144;8.668;2023-10-13T05:11:47;100005.53;;;18.15;60.05
15267;BME280;7735;49.144;8.668;2023-10-13T05:14:31;100005.69;;;18.11;60.00
15267;BME280;7735;49.144;8.668;2023-10-13T05:17:16;100003.06;;;18.10;60.09
15267;BME280;7735;49.144;8.668;2023-10-13T05:20:00;100008.47;;;18.07;60.23
15267;BME280;7735;49.144;8.668;2023-10-13T05:22:45;100006.09;;;18.01;60.38
15267;BME280;7735;49.144;8.668;2023-10-13T05:25:35;100007.16;;;17.97;60.46
15267;BME280;7735;49.144;8.668;2023-10-13T05:28:18;100002.00;;;17.94;60.41
15267;BME280;7735;49.144;8.668;2023-10-13T05:31:02;100009.94;;;17.92;60.58
15267;BME280;7735;49.144;8.668;2023-10-13T05:33:48;100005.53;;;17.93;60.50
15267;BME280;7735;49.144;8.668;2023-10-13T05:36:33;100008.38;;;17.88;60.41
15267;BME280;7735;49.144;8.668;2023-10-13T05:39:18;100005.91;;;17.83;60.55
15267;BME280;7735;49.144;8.668;2023-10-13T05:42:02;99998.13;;;17.80;60.67
15267;BME280;7735;49.144;8.668;2023-10-13T05:44:46;100008.59;;;17.82;60.69
15267;BME280;7735;49.144;8.668;2023-10-13T05:47:42;99992.81;;;17.82;60.68
15267;BME280;7735;49.144;8.668;2023-10-13T05:50:19;100000.63;;;17.83;60.83
15267;BME280;7735;49.144;8.668;2023-10-13T05:53:03;99995.38;;;17.83;60.76
15267;BME280;7735;49.144;8.668;2023-10-13T05:55:48;100000.78;;;17.80;60.79
15267;BME280;7735;49.144;8.668;2023-10-13T05:58:32;99996.56;;;17.76;60.64
15267;BME280;7735;49.144;8.668;2023-10-13T06:01:16;99991.47;;;17.72;60.72
15267;BME280;7735;49.144;8.668;2023-10-13T06:03:59;99997.56;;;17.72;60.85
15267;BME280;7735;49.144;8.668;2023-10-13T06:06:43;99993.25;;;17.71;60.66
15267;BME280;7735;49.144;8.668;2023-10-13T06:09:28;99993.31;;;17.70;60.65
15267;BME280;7735;49.144;8.668;2023-10-13T06:12:13;99985.41;;;17.70;60.55
15267;BME280;7735;49.144;8.668;2023-10-13T06:14:57;99986.25;;;17.70;60.65
15267;BME280;7735;49.144;8.668;2023-10-13T06:17:40;99992.31;;;17.72;60.48
15267;BME280;7735;49.144;8.668;2023-10-13T06:20:24;99996.66;;;17.73;60.39
15267;BME280;7735;49.144;8.668;2023-10-13T06:23:08;99997.69;;;17.69;60.41
15267;BME280;7735;49.144;8.668;2023-10-13T06:25:52;99995.22;;;17.65;60.47
15267;BME280;7735;49.144;8.668;2023-10-13T06:28:38;99995.41;;;17.60;60.40
15267;BME280;7735;49.144;8.668;2023-10-13T06:31:09;99998.03;;;17.60;60.54
15267;BME280;7735;49.144;8.668;2023-10-13T06:33:40;100005.00;;;17.61;60.68
15267;BME280;7735;49.144;8.668;2023-10-13T06:36:10;100004.16;;;17.61;60.58
15267;BME280;7735;49.144;8.668;2023-10-13T06:38:37;100005.00;;;17.61;60.59
15267;BME280;7735;49.144;8.668;2023-10-13T06:41:04;100002.25;;;17.64;60.42
15267;BME280;7735;49.144;8.668;2023-10-13T06:43:31;100002.25;;;17.64;60.44
15267;BME280;7735;49.144;8.668;2023-10-13T06:46:06;100002.25;;;17.64;60.54
15267;BME280;7735;49.144;8.668;2023-10-13T06:48:37;99998.63;;;17.67;60.56
15267;BME280;7735;49.144;8.668;2023-10-13T06:51:06;100002.00;;;17.72;60.47
15267;BME280;7735;49.144;8.668;2023-10-13T06:53:43;99996.66;;;17.73;60.35
15267;BME280;7735;49.144;8.668;2023-10-13T06:56:12;99994.88;;;17.74;60.40
15267;BME280;7735;49.144;8.668;2023-10-13T06:58:43;99986.91;;;17.75;60.40
15267;BME280;7735;49.144;8.668;2023-10-13T07:01:13;99989.44;;;17.78;60.37
15267;BME280;7735;49.144;8.668;2023-10-13T07:03:47;99992.94;;;17.79;60.42
15267;BME280;7735;49.144;8.668;2023-10-13T07:06:18;99996.34;;;17.81;60.47
15267;BME280;7735;49.144;8.668;2023-10-13T07:08:45;99995.38;;;17.83;60.55
15267;BME280;7735;49.144;8.668;2023-10-13T07:11:17;99997.97;;;17.85;60.63
15267;BME280;7735;49.144;8.668;2023-10-13T07:13:48;99993.41;;;17.89;60.54
15267;BME280;7735;49.144;8.668;2023-10-13T07:16:18;99995.84;;;17.93;60.58
15267;BME280;7735;49.144;8.668;2023-10-13T07:18:45;100001.88;;;17.97;60.60
15267;BME280;7735;49.144;8.668;2023-10-13T07:21:18;99998.31;;;17.98;60.45
15267;BME280;7735;49.144;8.668;2023-10-13T07:23:50;99997.31;;;18.00;60.46
15267;BME280;7735;49.144;8.668;2023-10-13T07:26:26;99999.84;;;18.03;60.61
15267;BME280;7735;49.144;8.668;2023-10-13T07:28:53;99999.72;;;18.06;60.72
15267;BME280;7735;49.144;8.668;2023-10-13T07:31:21;100002.22;;;18.09;60.53
15267;BME280;7735;49.144;8.668;2023-10-13T07:33:52;99996.00;;;18.12;60.57
15267;BME280;7735;49.144;8.668;2023-10-13T07:36:19;99993.16;;;18.17;60.46
15267;BME280;7735;49.144;8.668;2023-10-13T07:38:53;99987.75;;;18.20;60.40
15267;BME280;7735;49.144;8.668;2023-10-13T07:41:45;99988.50;;;18.23;60.66
15267;BME280;7735;49.144;8.668;2023-10-13T07:44:17;99987.50;;;18.26;60.59
15267;BME280;7735;49.144;8.668;2023-10-13T07:46:46;99986.50;;;18.28;60.54
15267;BME280;7735;49.144;8.668;2023-10-13T07:49:14;99988.09;;;18.32;60.50
15267;BME280;7735;49.144;8.668;2023-10-13T07:51:40;99984.41;;;18.36;60.69
15267;BME280;7735;49.144;8.668;2023-10-13T07:54:10;99983.38;;;18.40;60.65
15267;BME280;7735;49.144;8.668;2023-10-13T07:56:38;99987.56;;;18.45;60.64
15267;BME280;7735;49.144;8.668;2023-10-13T07:59:05;99982.97;;;18.50;60.76
15267;BME280;7735;49.144;8.668;2023-10-13T08:01:34;99974.91;;;18.53;60.96
15267;BME280;7735;49.144;8.668;2023-10-13T08:04:02;99976.53;;;18.57;60.99
15267;BME280;7735;49.144;8.668;2023-10-13T08:06:36;99979.00;;;18.60;61.00
15267;BME280;7735;49.144;8.668;2023-10-13T08:09:05;99967.38;;;18.64;60.94
15267;BME280;7735;49.144;8.668;2023-10-13T08:11:34;99969.03;;;18.68;61.10
15267;BME280;7735;49.144;8.668;2023-10-13T08:14:03;99972.44;;;18.70;61.06
15267;BME280;7735;49.144;8.668;2023-10-13T08:16:38;99966.16;;;18.73;60.92
15267;BME280;7735;49.144;8.668;2023-10-13T08:19:21;99970.47;;;18.75;61.05
15267;BME280;7735;49.144;8.668;2023-10-13T08:21:53;99961.47;;;18.79;61.21
15267;BME280;7735;49.144;8.668;2023-10-13T08:24:23;99957.81;;;18.83;61.47
15267;BME280;7735;49.144;8.668;2023-10-13T08:26:53;99960.28;;;18.86;61.68
15267;BME280;7735;49.144;8.668;2023-10-13T08:29:37;99957.50;;;18.89;61.45
15267;BME280;7735;49.144;8.668;2023-10-13T08:32:40;99954.75;;;18.92;61.18
15267;BME280;7735;49.144;8.668;2023-10-13T08:35:21;99952.81;;;18.96;61.38
15267;BME280;7735;49.144;8.668;2023-10-13T08:38:19;99943.84;;;19.00;61.37
15267;BME280;7735;49.144;8.668;2023-10-13T08:40:57;99943.69;;;19.03;61.39
15267;BME280;7735;49.144;8.668;2023-10-13T08:43:49;99941.75;;;19.07;61.13
15267;BME280;7735;49.144;8.668;2023-10-13T08:46:17;99953.81;;;19.12;61.00
15267;BME280;7735;49.144;8.668;2023-10-13T08:48:55;99949.25;;;19.16;60.97
15267;BME280;7735;49.144;8.668;2023-10-13T08:51:36;99948.19;;;19.20;60.80
15267;BME280;7735;49.144;8.668;2023-10-13T08:54:14;99949.75;;;19.24;60.74
15267;BME280;7735;49.144;8.668;2023-10-13T08:56:59;99949.69;;;19.25;60.90
15267;BME280;7735;49.144;8.668;2023-10-13T08:59:32;99950.41;;;19.29;60.79
15267;BME280;7735;49.144;8.668;2023-10-13T09:02:11;99947.50;;;19.35;60.74
15267;BME280;7735;49.144;8.668;2023-10-13T09:04:42;99943.00;;;19.37;60.70
15267;BME280;7735;49.144;8.668;2023-10-13T09:07:10;99940.19;;;19.40;60.84
15267;BME280;7735;49.144;8.668;2023-10-13T09:09:47;99941.47;;;19.50;60.26
15267;BME280;7735;49.144;8.668;2023-10-13T09:12:36;99935.13;;;19.55;60.07
15267;BME280;7735;49.144;8.668;2023-10-13T09:15:29;99932.44;;;19.56;59.89
15267;BME280;7735;49.144;8.668;2023-10-13T09:18:23;99925.84;;;19.65;58.74
15267;BME280;7735;49.144;8.668;2023-10-13T09:21:07;99927.13;;;19.75;57.64
15267;BME280;7735;49.144;8.668;2023-10-13T09:23:56;99923.09;;;19.85;56.24
15267;BME280;7735;49.144;8.668;2023-10-13T09:26:36;99920.91;;;19.93;55.26
15267;BME280;7735;49.144;8.668;2023-10-13T09:29:14;99923.25;;;19.99;54.77
15267;BME280;7735;49.144;8.668;2023-10-13T09:31:39;99923.19;;;20.01;54.88
15267;BME280;7735;49.144;8.668;2023-10-13T09:34:10;99922.16;;;20.03;54.50
15267;BME280;7735;49.144;8.668;2023-10-13T09:36:35;99925.59;;;20.05;54.44
15267;BME280;7735;49.144;8.668;2023-10-13T09:39:04;99916.75;;;20.06;54.49
15267;BME280;7735;49.144;8.668;2023-10-13T09:41:39;99920.31;;;20.05;54.77
15267;BME280;7735;49.144;8.668;2023-10-13T09:44:06;99916.88;;;20.03;54.99
15267;BME280;7735;49.144;8.668;2023-10-13T09:46:37;99916.97;;;20.02;55.28
15267;BME280;7735;49.144;8.668;2023-10-13T09:49:12;99908.16;;;20.01;55.52
15267;BME280;7735;49.144;8.668;2023-10-13T09:51:41;99903.91;;;19.99;55.57
15267;BME280;7735;49.144;8.668;2023-10-13T09:54:18;99909.19;;;19.99;55.59
15267;BME280;7735;49.144;8.668;2023-10-13T09:56:48;99898.53;;;20.00;55.76
15267;BME280;7735;49.144;8.668;2023-10-13T09:59:20;99890.44;;;20.03;55.38
15267;BME280;7735;49.144;8.668;2023-10-13T10:01:48;99889.38;;;20.07;55.34
15267;BME280;7735;49.144;8.668;2023-10-13T10:04:17;99883.84;;;20.12;55.22
15267;BME280;7735;49.144;8.668;2023-10-13T10:06:51;99886.09;;;20.20;54.88
15267;BME280;7735;49.144;8.668;2023-10-13T10:09:26;99882.19;;;20.27;54.45
15267;BME280;7735;49.144;8.668;2023-10-13T10:12:19;99872.84;;;20.37;53.59
15267;BME280;7735;49.144;8.668;2023-10-13T10:15:06;99870.75;;;20.61;51.91
15267;BME280;7735;49.144;8.668;2023-10-13T10:17:40;99867.00;;;20.81;50.95
15267;BME280;7735;49.144;8.668;2023-10-13T10:20:07;99875.06;;;20.95;50.80
15267;BME280;7735;49.144;8.668;2023-10-13T10:22:55;99870.59;;;21.11;49.67
15267;BME280;7735;49.144;8.668;2023-10-13T10:25:30;99865.19;;;21.30;49.46
15267;BME280;7735;49.144;8.668;2023-10-13T10:28:01;99866.88;;;21.47;48.85
15267;BME280;7735;49.144;8.668;2023-10-13T10:30:31;99855.38;;;21.62;48.08
15267;BME280;7735;49.144;8.668;2023-10-13T10:33:00;99848.34;;;21.77;47.04
15267;BME280;7735;49.144;8.668;2023-10-13T10:35:33;99850.50;;;22.00;45.36
15267;BME280;7735;49.144;8.668;2023-10-13T10:38:07;99849.50;;;22.31;43.86
15267;BME280;7735;49.144;8.668;2023-10-13T10:40:52;99843.56;;;22.56;43.41
15267;BME280;7735;49.144;8.668;2023-10-13T10:43:23;99835.97;;;22.65;43.41
15267;BME280;7735;49.144;8.668;2023-10-13T10:45:52;99832.44;;;22.78;42.61
15267;BME280;7735;49.144;8.668;2023-10-13T10:48:25;99833.75;;;23.00;41.69
15267;BME280;7735;49.144;8.668;2023-10-13T10:50:57;99831.72;;;23.17;40.70
15267;BME280;7735;49.144;8.668;2023-10-13T10:53:25;99828.09;;;23.33;40.67
15267;BME280;7735;49.144;8.668;2023-10-13T10:56:05;99830.56;;;23.49;39.84
15267;BME280;7735;49.144;8.668;2023-10-13T10:58:34;99832.00;;;23.67;39.48
15267;BME280;7735;49.144;8.668;2023-10-13T11:01:09;99829.63;;;23.89;37.43
15267;BME280;7735;49.144;8.668;2023-10-13T11:03:37;99836.13;;;24.11;37.26
15267;BME280;7735;49.144;8.668;2023-10-13T11:06:11;99821.66;;;24.27;36.29
15267;BME280;7735;49.144;8.668;2023-10-13T11:08:42;99825.41;;;24.50;36.00
15267;BME280;7735;49.144;8.668;2023-10-13T11:11:28;99822.22;;;24.58;36.15
15267;BME280;7735;49.144;8.668;2023-10-13T11:13:56;99814.84;;;24.62;36.19
15267;BME280;7735;49.144;8.668;2023-10-13T11:16:45;99807.59;;;24.64;35.62
15267;BME280;7735;49.144;8.668;2023-10-13T11:19:16;99802.25;;;24.76;35.62
15267;BME280;7735;49.144;8.668;2023-10-13T11:21:42;99795.28;;;24.86;35.29
15267;BME280;7735;49.144;8.668;2023-10-13T11:24:09;99796.44;;;24.95;34.86
15267;BME280;7735;49.144;8.668;2023-10-13T11:26:38;99783.84;;;25.10;34.14
15267;BME280;7735;49.144;8.668;2023-10-13T11:29:14;99792.50;;;25.25;33.59
15267;BME280;7735;49.144;8.668;2023-10-13T11:31:44;99785.03;;;25.30;33.60
15267;BME280;7735;49.144;8.668;2023-10-13T11:34:11;99802.47;;;25.34;33.66
15267;BME280;7735;49.144;8.668;2023-10-13T11:36:41;99787.72;;;25.41;33.60
15267;BME280;7735;49.144;8.668;2023-10-13T11:39:08;99774.44;;;25.52;32.85
15267;BME280;7735;49.144;8.668;2023-10-13T11:41:33;99762.84;;;25.64;32.54
15267;BME280;7735;49.144;8.668;2023-10-13T11:44:05;99773.56;;;25.76;32.36
15267;BME280;7735;49.144;8.668;2023-10-13T11:46:38;99771.41;;;25.81;32.52
15267;BME280;7735;49.144;8.668;2023-10-13T11:49:20;99766.41;;;25.76;33.00
15267;BME280;7735;49.144;8.668;2023-10-13T11:51:57;99757.31;;;25.79;32.71
15267;BME280;7735;49.144;8.668;2023-10-13T11:54:34;99757.84;;;25.84;32.40
15267;BME280;7735;49.144;8.668;2023-10-13T11:57:07;99757.09;;;25.82;32.86
15267;BME280;7735;49.144;8.668;2023-10-13T11:59:35;99755.50;;;25.79;32.91
15267;BME280;7735;49.144;8.668;2023-10-13T12:02:10;99739.03;;;25.85;32.20
15267;BME280;7735;49.144;8.668;2023-10-13T12:04:54;99730.94;;;25.98;31.45
15267;BME280;7735;49.144;8.668;2023-10-13T12:07:22;99736.53;;;26.06;30.74
15267;BME280;7735;49.144;8.668;2023-10-13T12:09:53;99739.91;;;26.19;30.29
15267;BME280;7735;49.144;8.668;2023-10-13T12:12:31;99729.47;;;26.27;30.42
15267;BME280;7735;49.144;8.668;2023-10-13T12:15:07;99721.09;;;26.32;30.33
15267;BME280;7735;49.144;8.668;2023-10-13T12:17:50;99711.78;;;26.38;30.83
15267;BME280;7735;49.144;8.668;2023-10-13T12:20:17;99713.97;;;26.44;30.23
15267;BME280;7735;49.144;8.668;2023-10-13T12:22:58;99720.38;;;26.41;30.74
15267;BME280;7735;49.144;8.668;2023-10-13T12:25:36;99715.03;;;26.30;30.59
15267;BME280;7735;49.144;8.668;2023-10-13T12:28:21;99712.47;;;26.62;29.77
15267;BME280;7735;49.144;8.668;2023-10-13T12:30:49;99710.03;;;26.70;29.96
15267;BME280;7735;49.144;8.668;2023-10-13T12:33:18;99699.16;;;26.51;30.80
15267;BME280;7735;49.144;8.668;2023-10-13T12:35:55;99700.84;;;26.30;31.24
15267;BME280;7735;49.144;8.668;2023-10-13T12:38:29;99693.31;;;26.12;31.71
15267;BME280;7735;49.144;8.668;2023-10-13T12:41:16;99688.72;;;26.03;31.81
15267;BME280;7735;49.144;8.668;2023-10-13T12:44:01;99682.91;;;26.09;31.18
15267;BME280;7735;49.144;8.668;2023-10-13T12:46:46;99671.72;;;26.26;30.47
15267;BME280;7735;49.144;8.668;2023-10-13T12:49:32;99674.41;;;26.38;30.66
15267;BME280;7735;49.144;8.668;2023-10-13T12:52:23;99679.22;;;26.33;30.66
15267;BME280;7735;49.144;8.668;2023-10-13T12:54:52;99679.00;;;26.36;30.77
15267;BME280;7735;49.144;8.668;2023-10-13T12:57:28;99671.97;;;26.46;30.37
15267;BME280;7735;49.144;8.668;2023-10-13T12:59:58;99668.50;;;26.66;29.79
15267;BME280;7735;49.144;8.668;2023-10-13T13:02:40;99669.19;;;26.79;29.74
15267;BME280;7735;49.144;8.668;2023-10-13T13:05:07;99666.00;;;26.86;29.73
15267;BME280;7735;49.144;8.668;2023-10-13T13:07:40;99663.31;;;26.86;29.49
15267;BME280;7735;49.144;8.668;2023-10-13T13:10:12;99662.38;;;26.87;29.42
15267;BME280;7735;49.144;8.668;2023-10-13T13:12:48;99668.56;;;26.87;29.43
15267;BME280;7735;49.144;8.668;2023-10-13T13:15:14;99656.28;;;26.85;29.08
15267;BME280;7735;49.144;8.668;2023-10-13T13:17:42;99655.06;;;26.89;29.03
15267;BME280;7735;49.144;8.668;2023-10-13T13:20:09;99651.69;;;26.87;29.22
15267;BME280;7735;49.144;8.668;2023-10-13T13:22:51;99646.34;;;26.87;29.24
15267;BME280;7735;49.144;8.668;2023-10-13T13:25:19;99640.72;;;26.90;29.01
15267;BME280;7735;49.144;8.668;2023-10-13T13:27:50;99638.19;;;26.88;28.96
15267;BME280;7735;49.144;8.668;2023-10-13T13:30:17;99637.28;;;26.78;29.40
15267;BME280;7735;49.144;8.668;2023-10-13T13:32:47;99622.84;;;26.69;29.55
15267;BME280;7735;49.144;8.668;2023-10-13T13:35:14;99617.63;;;26.68;29.50
15267;BME280;7735;49.144;8.668;2023-10-13T13:37:44;99606.34;;;26.64;29.64
15267;BME280;7735;49.144;8.668;2023-10-13T13:40:11;99608.19;;;26.64;29.62
15267;BME280;7735;49.144;8.668;2023-10-13T13:42:41;99599.59;;;26.60;29.79